createdAt,value
2023-03-11T00:00:19.792Z,100145.40
2023-03-11T00:02:53.672Z,100145.65
2023-03-11T00:05:06.695Z,100148.38
2023-03-11T00:07:19.653Z,100154.86
2023-03-11T00:09:32.326Z,100153.45
2023-03-11T00:11:46.633Z,100160.94
2023-03-11T00:13:59.436Z,100159.23
2023-03-11T00:16:13.166Z,100158.61
2023-03-11T00:18:29.126Z,100157.88
2023-03-11T00:20:44.275Z,100164.69
2023-03-11T00:22:57.889Z,100169.20
2023-03-11T00:25:13.489Z,100168.02
2023-03-11T00:27:26.415Z,100172.42
2023-03-11T00:29:39.831Z,100174.34
2023-03-11T00:31:52.823Z,100180.40
2023-03-11T00:34:07.181Z,100179.30
2023-03-11T00:36:32.615Z,100184.14
2023-03-11T00:38:45.396Z,100189.38
2023-03-11T00:40:58.657Z,100189.61
2023-03-11T00:43:11.540Z,100195.20
2023-03-11T00:45:24.825Z,100202.25
2023-03-11T00:47:38.262Z,100199.46
2023-03-11T00:49:52.263Z,100208.38
2023-03-11T00:52:07.324Z,100203.79
2023-03-11T00:54:19.982Z,100207.59
2023-03-11T00:56:32.756Z,100204.38
2023-03-11T00:58:47.002Z,100210.60
2023-03-11T01:00:59.788Z,100223.00
2023-03-11T01:03:13.391Z,100218.66
2023-03-11T01:05:29.034Z,100222.52
2023-03-11T01:07:41.994Z,100222.84
2023-03-11T01:09:55.188Z,100233.09
2023-03-11T01:12:08.158Z,100230.27
2023-03-11T01:14:24.405Z,100232.52
2023-03-11T01:16:38.036Z,100238.31
2023-03-11T01:18:51.828Z,100234.05
2023-03-11T01:21:05.123Z,100236.36
2023-03-11T01:23:20.067Z,100238.27
2023-03-11T01:25:33.798Z,100247.41
2023-03-11T01:27:47.115Z,100249.75
2023-03-11T01:30:03.108Z,100251.85
2023-03-11T01:32:16.768Z,100260.79
2023-03-11T01:34:31.940Z,100260.60
2023-03-11T01:36:45.229Z,100265.89
2023-03-11T01:38:58.411Z,100269.24
2023-03-11T01:41:12.427Z,100271.09
2023-03-11T01:43:50.819Z,100276.15
2023-03-11T01:46:19.488Z,100275.83
2023-03-11T01:48:32.829Z,100279.75
2023-03-11T01:50:51.902Z,100284.04
2023-03-11T01:53:04.901Z,100290.32
2023-03-11T01:55:20.484Z,100299.52
2023-03-11T01:57:34.436Z,100302.48
2023-03-11T01:59:52.235Z,100306.41
2023-03-11T02:02:13.345Z,100312.48
2023-03-11T02:04:29.703Z,100316.63
2023-03-11T02:06:42.975Z,100320.67
2023-03-11T02:08:56.943Z,100331.52
2023-03-11T02:11:12.402Z,100337.05
2023-03-11T02:13:26.118Z,100341.07
2023-03-11T02:15:41.046Z,100345.09
2023-03-11T02:17:54.772Z,100346.53
2023-03-11T02:20:20.293Z,100352.91
2023-03-11T02:22:34.634Z,100355.90
2023-03-11T02:24:57.709Z,100357.19
2023-03-11T02:27:13.934Z,100359.81
2023-03-11T02:29:28.794Z,100364.99
2023-03-11T02:31:44.938Z,100370.65
2023-03-11T02:34:01.230Z,100373.77
2023-03-11T02:36:36.658Z,100381.99
2023-03-11T02:38:49.687Z,100388.80
2023-03-11T02:41:05.057Z,100392.02
2023-03-11T02:43:21.344Z,100400.54
2023-03-11T02:45:38.282Z,100406.23
2023-03-11T02:47:51.639Z,100407.10
2023-03-11T02:50:04.408Z,100415.96
2023-03-11T02:52:17.064Z,100416.57
2023-03-11T02:54:29.981Z,100422.07
2023-03-11T02:56:42.747Z,100427.91
2023-03-11T02:58:55.230Z,100432.09
2023-03-11T03:01:08.123Z,100438.58
2023-03-11T03:03:20.637Z,100436.81
2023-03-11T03:05:33.858Z,100439.51
2023-03-11T03:07:47.202Z,100453.06
2023-03-11T03:10:00.032Z,100458.70
2023-03-11T03:12:14.694Z,100462.33
2023-03-11T03:14:29.395Z,100462.67
2023-03-11T03:16:42.121Z,100465.84
2023-03-11T03:18:55.109Z,100474.32
2023-03-11T03:21:08.231Z,100470.76
2023-03-11T03:23:21.021Z,100484.31
2023-03-11T03:25:37.051Z,100495.56
2023-03-11T03:27:51.731Z,100506.17
2023-03-11T03:30:04.437Z,100504.33
2023-03-11T03:32:18.270Z,100512.08
2023-03-11T03:34:31.397Z,100521.41
2023-03-11T03:36:44.416Z,100521.89
2023-03-11T03:39:00.632Z,100526.44
2023-03-11T03:41:19.002Z,100526.96
2023-03-11T03:43:31.571Z,100532.50
2023-03-11T03:45:44.334Z,100531.37
2023-03-11T03:47:57.404Z,100536.75
2023-03-11T03:50:12.397Z,100534.52
2023-03-11T03:52:26.459Z,100531.01
2023-03-11T03:54:39.505Z,100538.75
2023-03-11T03:56:53.029Z,100541.67
2023-03-11T03:59:06.289Z,100549.96
2023-03-11T04:01:23.789Z,100562.98
2023-03-11T04:03:37.664Z,100566.36
2023-03-11T04:15:30.411Z,100584.79
2023-03-11T04:17:56.491Z,100588.90
2023-03-11T04:20:10.791Z,100593.80
2023-03-11T04:22:23.362Z,100599.91
2023-03-11T04:24:36.802Z,100604.95
2023-03-11T04:26:49.486Z,100609.60
2023-03-11T04:29:03.279Z,100612.13
2023-03-11T04:31:18.428Z,100619.27
2023-03-11T04:33:31.060Z,100621.94
2023-03-11T04:35:45.748Z,100629.88
2023-03-11T04:37:59.271Z,100631.00
2023-03-11T04:40:16.138Z,100631.66
2023-03-11T04:42:30.366Z,100642.67
2023-03-11T04:44:43.229Z,100648.65
2023-03-11T04:46:55.967Z,100648.23
2023-03-11T04:49:09.184Z,100649.32
2023-03-11T04:51:21.955Z,100657.02
2023-03-11T04:53:34.624Z,100660.41
2023-03-11T04:55:48.370Z,100661.18
2023-03-11T04:58:00.822Z,100666.02
2023-03-11T05:00:21.126Z,100669.83
2023-03-11T05:02:34.930Z,100669.20
2023-03-11T05:04:48.535Z,100672.27
2023-03-11T05:07:01.270Z,100670.90
2023-03-11T05:09:13.690Z,100671.30
2023-03-11T05:11:26.387Z,100670.76
2023-03-11T05:13:38.870Z,100671.80
2023-03-11T05:15:51.540Z,100672.40
2023-03-11T05:18:04.153Z,100677.73
2023-03-11T05:20:20.799Z,100674.27
2023-03-11T05:22:34.341Z,100680.09
2023-03-11T05:24:47.983Z,100679.70
2023-03-11T05:27:01.004Z,100680.66
2023-03-11T05:30:14.354Z,100686.59
2023-03-11T05:38:49.968Z,100689.00
2023-03-11T05:41:49.421Z,100690.58
2023-03-11T05:44:41.759Z,100688.48
2023-03-11T05:47:25.285Z,100696.29
2023-03-11T05:49:43.965Z,100697.71
2023-03-11T05:51:58.790Z,100700.49
2023-03-11T05:57:19.685Z,100708.44
2023-03-11T05:59:33.513Z,100712.84
2023-03-11T06:01:51.209Z,100717.48
2023-03-11T06:04:07.293Z,100719.83
2023-03-11T06:06:33.136Z,100721.22
2023-03-11T06:09:38.013Z,100724.59
2023-03-11T06:11:53.689Z,100728.30
2023-03-11T06:14:14.715Z,100727.45
2023-03-11T06:16:29.996Z,100727.97
2023-03-11T06:18:45.483Z,100735.38
2023-03-11T06:21:04.458Z,100736.10
2023-03-11T06:23:18.073Z,100745.22
2023-03-11T06:25:58.194Z,100743.42
2023-03-11T06:28:11.908Z,100745.23
2023-03-11T06:30:27.239Z,100746.65
2023-03-11T06:33:02.576Z,100749.23
2023-03-11T06:35:36.610Z,100759.17
2023-03-11T06:38:48.312Z,100761.61
2023-03-11T06:41:19.626Z,100763.83
2023-03-11T06:43:52.085Z,100762.08
2023-03-11T06:46:32.863Z,100770.93
2023-03-11T06:49:46.331Z,100774.38
2023-03-11T06:52:09.935Z,100776.23
2023-03-11T06:54:42.708Z,100777.33
2023-03-11T06:57:15.989Z,100778.05
2023-03-11T06:59:39.026Z,100782.38
2023-03-11T07:01:56.495Z,100781.23
2023-03-11T07:04:15.940Z,100781.73
2023-03-11T07:07:21.529Z,100781.84
2023-03-11T07:10:21.043Z,100788.16
2023-03-11T07:13:24.915Z,100797.84
2023-03-11T07:16:19.386Z,100794.79
2023-03-11T07:22:10.130Z,100809.67
2023-03-11T07:25:04.366Z,100808.86
2023-03-11T07:27:36.337Z,100820.09
2023-03-11T07:30:11.294Z,100820.48
2023-03-11T07:32:35.489Z,100821.19
2023-03-11T07:34:55.395Z,100824.80
2023-03-11T07:37:19.541Z,100829.38
2023-03-11T07:39:42.779Z,100835.30
2023-03-11T07:42:06.932Z,100837.52
2023-03-11T07:44:39.904Z,100839.55
2023-03-11T07:47:08.105Z,100844.32
2023-03-11T07:49:29.988Z,100850.30
2023-03-11T07:51:56.079Z,100856.66
2023-03-11T07:54:28.926Z,100863.63
2023-03-11T07:56:55.825Z,100862.80
2023-03-11T07:59:29.196Z,100862.07
2023-03-11T08:02:02.280Z,100873.02
2023-03-11T08:04:36.361Z,100872.86
2023-03-11T08:07:10.430Z,100874.90
2023-03-11T08:09:44.108Z,100877.60
2023-03-11T08:11:59.956Z,100874.88
2023-03-11T08:14:23.480Z,100873.66
2023-03-11T08:16:49.765Z,100879.61
2023-03-11T08:19:15.800Z,100881.02
2023-03-11T08:21:48.639Z,100881.50
2023-03-11T08:24:14.302Z,100882.91
2023-03-11T08:26:47.286Z,100883.04
2023-03-11T08:29:10.136Z,100889.77
2023-03-11T08:31:34.258Z,100887.59
2023-03-11T08:33:47.774Z,100887.23
2023-03-11T08:36:03.506Z,100889.89
2023-03-11T08:38:19.656Z,100890.46
2023-03-11T08:40:52.719Z,100893.19
2023-03-11T08:43:08.979Z,100896.77
2023-03-11T08:45:42.587Z,100896.07
2023-03-11T08:48:05.749Z,100902.06
2023-03-11T08:50:52.889Z,100903.69
2023-03-11T08:53:17.771Z,100904.16
2023-03-11T08:55:34.963Z,100907.05
2023-03-11T08:57:57.944Z,100909.45
2023-03-11T09:00:16.019Z,100908.55
2023-03-11T09:02:48.794Z,100907.54
2023-03-11T09:05:16.444Z,100909.58
2023-03-11T09:07:29.201Z,100910.58
2023-03-11T09:09:41.884Z,100911.27
2023-03-11T09:11:55.484Z,100916.14
2023-03-11T09:14:19.371Z,100917.20
2023-03-11T09:16:52.632Z,100919.40
2023-03-11T09:19:15.303Z,100914.77
2023-03-11T09:21:31.181Z,100916.30
2023-03-11T09:24:05.377Z,100919.43
2023-03-11T09:26:31.300Z,100925.33
2023-03-11T09:29:04.193Z,100924.77
2023-03-11T09:31:17.180Z,100926.70
2023-03-11T09:33:51.192Z,100929.30
2023-03-11T09:36:16.848Z,100927.02
2023-03-11T09:38:41.181Z,100929.29
2023-03-11T09:41:22.018Z,100929.59
2023-03-11T09:43:57.022Z,100927.30
2023-03-11T09:46:49.818Z,100929.59
2023-03-11T09:49:10.070Z,100928.04
2023-03-11T09:51:36.206Z,100928.67
2023-03-11T09:53:50.443Z,100925.48
2023-03-11T09:56:26.105Z,100925.28
2023-03-11T09:59:03.456Z,100925.51
2023-03-11T10:01:34.325Z,100935.61
2023-03-11T10:03:59.805Z,100937.02
2023-03-11T10:06:27.567Z,100937.96
2023-03-11T10:09:10.938Z,100938.14
2023-03-11T10:11:52.498Z,100936.92
2023-03-11T10:14:31.515Z,100938.39
2023-03-11T10:16:58.806Z,100939.48
2023-03-11T10:19:43.724Z,100938.13
2023-03-11T10:22:16.084Z,100940.38
2023-03-11T10:25:00.345Z,100938.01
2023-03-11T10:27:20.353Z,100941.11
2023-03-11T10:30:02.578Z,100939.98
2023-03-11T10:32:44.344Z,100944.16
2023-03-11T10:35:18.811Z,100945.33
2023-03-11T10:37:48.772Z,100940.77
2023-03-11T10:40:07.581Z,100944.89
2023-03-11T10:42:51.945Z,100945.65
2023-03-11T10:45:22.034Z,100945.90
2023-03-11T10:47:55.036Z,100941.63
2023-03-11T10:50:23.511Z,100944.84
2023-03-11T10:53:04.899Z,100944.40
2023-03-11T10:55:27.614Z,100945.77
2023-03-11T10:58:10.806Z,100943.47
2023-03-11T11:00:35.435Z,100940.68
2023-03-11T11:03:00.940Z,100939.50
2023-03-11T11:05:33.770Z,100943.37
2023-03-11T11:08:16.942Z,100942.02
2023-03-11T11:10:58.822Z,100941.16
2023-03-11T11:13:25.270Z,100941.17
2023-03-11T11:15:55.971Z,100943.00
2023-03-11T11:18:26.579Z,100940.46
2023-03-11T11:21:04.115Z,100936.11
2023-03-11T11:23:42.625Z,100938.23
2023-03-11T11:26:05.730Z,100934.17
2023-03-11T11:28:24.106Z,100937.21
2023-03-11T11:30:59.267Z,100937.40
2023-03-11T11:33:32.288Z,100936.99
2023-03-11T11:35:58.601Z,100934.77
2023-03-11T11:38:28.231Z,100936.58
2023-03-11T11:40:43.875Z,100939.59
2023-03-11T11:43:16.273Z,100938.63
2023-03-11T11:45:41.770Z,100935.65
2023-03-11T11:48:23.051Z,100931.33
2023-03-11T11:51:00.998Z,100933.81
2023-03-11T11:53:42.161Z,100930.08
2023-03-11T11:56:14.828Z,100930.84
2023-03-11T11:58:28.358Z,100930.80
2023-03-11T12:00:48.874Z,100932.34
2023-03-11T12:03:44.604Z,100936.20
2023-03-11T12:06:25.113Z,100932.73
2023-03-11T12:08:46.468Z,100931.96
2023-03-11T12:11:10.996Z,100935.02
2023-03-11T12:14:06.724Z,100936.70
2023-03-11T12:16:50.963Z,100931.16
2023-03-11T12:19:33.812Z,100928.98
2023-03-11T12:22:38.401Z,100927.27
2023-03-11T12:25:23.281Z,100927.52
2023-03-11T12:27:51.122Z,100928.16
2023-03-11T12:30:08.796Z,100931.70
2023-03-11T12:32:34.292Z,100933.86
2023-03-11T12:35:28.891Z,100929.84
2023-03-11T12:37:58.926Z,100933.77
2023-03-11T12:41:04.666Z,100934.89
2023-03-11T12:43:53.507Z,100933.94
2023-03-11T12:46:10.707Z,100937.73
2023-03-11T12:48:40.039Z,100936.27
2023-03-11T12:50:53.451Z,100941.03
2023-03-11T12:53:06.399Z,100942.02
2023-03-11T12:55:42.151Z,100943.88
2023-03-11T12:58:51.359Z,100943.52
2023-03-11T13:01:34.020Z,100945.52
2023-03-11T13:04:22.808Z,100949.98
2023-03-11T13:07:22.947Z,100951.60
2023-03-11T13:09:36.150Z,100951.16
2023-03-11T13:12:00.709Z,100951.18
2023-03-11T13:14:34.273Z,100952.05
2023-03-11T13:17:33.554Z,100949.91
2023-03-11T13:20:04.075Z,100956.67
2023-03-11T13:22:47.593Z,100951.81
2023-03-11T13:25:31.684Z,100956.83
2023-03-11T13:27:55.234Z,100957.27
2023-03-11T13:30:37.391Z,100958.35
2023-03-11T13:33:37.802Z,100953.88
2023-03-11T13:36:13.342Z,100954.04
2023-03-11T13:38:46.571Z,100955.92
2023-03-11T13:41:20.863Z,100961.04
2023-03-11T13:43:36.530Z,100963.13
2023-03-11T13:45:58.492Z,100961.45
2023-03-11T13:48:24.794Z,100964.84
2023-03-11T13:51:02.770Z,100967.48
2023-03-11T13:53:43.771Z,100964.36
2023-03-11T13:56:07.426Z,100959.60
2023-03-11T13:58:40.128Z,100960.73
2023-03-11T14:01:20.926Z,100960.05
2023-03-11T14:03:54.198Z,100961.76
2023-03-11T14:06:19.339Z,100962.74
2023-03-11T14:08:35.945Z,100961.41
2023-03-11T14:10:58.277Z,100961.62
2023-03-11T14:13:24.606Z,100964.49
2023-03-11T14:15:46.757Z,100963.76
2023-03-11T14:18:37.907Z,100969.47
2023-03-11T14:21:02.297Z,100975.36
2023-03-11T14:23:38.602Z,100977.89
2023-03-11T14:26:21.869Z,100982.84
2023-03-11T14:28:38.078Z,100978.38
2023-03-11T14:31:04.998Z,100975.34
2023-03-11T14:33:29.321Z,100976.99
2023-03-11T14:35:43.247Z,100977.81
2023-03-11T14:37:56.194Z,100981.80
2023-03-11T14:40:34.583Z,100980.29
2023-03-11T14:42:54.838Z,100977.52
2023-03-11T14:45:21.196Z,100980.84
2023-03-11T14:47:57.897Z,100979.79
2023-03-11T14:50:33.768Z,100981.38
2023-03-11T14:53:10.432Z,100980.73
2023-03-11T14:55:27.075Z,100976.48
2023-03-11T14:58:03.480Z,100976.88
2023-03-11T15:00:40.760Z,100981.48
2023-03-11T15:03:24.230Z,100982.32
2023-03-11T15:05:59.801Z,100982.30
2023-03-11T15:08:26.008Z,100985.64
2023-03-11T15:11:10.769Z,100980.33
2023-03-11T15:13:30.239Z,100976.34
2023-03-11T15:16:09.230Z,100980.52
2023-03-11T15:18:43.841Z,100979.08
2023-03-11T15:21:19.683Z,100974.65
2023-03-11T15:23:57.732Z,100985.89
2023-03-11T15:26:32.559Z,100988.77
2023-03-11T15:29:07.262Z,100992.29
2023-03-11T15:31:38.989Z,100995.66
2023-03-11T15:34:34.539Z,101002.85
2023-03-11T15:37:03.587Z,101005.94
2023-03-11T15:39:44.978Z,101007.95
2023-03-11T15:42:16.197Z,101010.77
2023-03-11T15:44:37.121Z,101018.39
2023-03-11T15:46:49.835Z,101013.06
2023-03-11T15:49:17.125Z,101018.47
2023-03-11T15:51:49.789Z,101019.02
2023-03-11T15:54:05.901Z,101019.39
2023-03-11T15:56:39.183Z,101021.33
2023-03-11T15:58:55.490Z,101014.97
2023-03-11T16:01:08.718Z,101012.69
2023-03-11T16:03:22.318Z,101009.20
2023-03-11T16:05:55.114Z,101008.89
2023-03-11T16:08:28.012Z,101010.77
2023-03-11T16:11:00.991Z,101009.06
2023-03-11T16:13:33.819Z,101010.71
2023-03-11T16:15:48.118Z,101005.55
2023-03-11T16:18:11.592Z,101009.23
2023-03-11T16:20:39.443Z,101009.14
2023-03-11T16:23:03.779Z,101008.83
2023-03-11T16:25:31.187Z,101013.36
2023-03-11T16:27:47.263Z,101014.80
2023-03-11T16:30:21.436Z,101010.41
2023-03-11T16:32:54.959Z,101011.86
2023-03-11T16:35:28.318Z,101017.62
2023-03-11T16:37:51.936Z,101020.17
2023-03-11T16:40:10.132Z,101016.96
2023-03-11T16:42:34.794Z,101020.91
2023-03-11T16:45:08.384Z,101019.78
2023-03-11T16:47:24.677Z,101014.44
2023-03-11T16:49:37.471Z,101020.59
2023-03-11T16:51:55.941Z,101024.91
2023-03-11T16:54:18.652Z,101028.77
2023-03-11T16:56:51.492Z,101033.14
2023-03-11T16:59:15.179Z,101032.88
2023-03-11T17:01:48.219Z,101032.06
2023-03-11T17:04:13.110Z,101029.02
2023-03-11T17:06:37.131Z,101034.21
2023-03-11T17:08:50.334Z,101037.16
2023-03-11T17:11:03.206Z,101040.86
2023-03-11T17:13:19.853Z,101045.43
2023-03-11T17:16:03.418Z,101044.23
2023-03-11T17:18:36.238Z,101045.59
2023-03-11T17:21:12.204Z,101048.98
2023-03-11T17:23:36.437Z,101054.96
2023-03-11T17:26:13.666Z,101052.66
2023-03-11T17:28:29.563Z,101050.64
2023-03-11T17:31:02.275Z,101053.16
2023-03-11T17:33:18.598Z,101053.89
2023-03-11T17:35:51.297Z,101058.66
2023-03-11T17:38:24.104Z,101057.06
2023-03-11T17:40:46.765Z,101054.00
2023-03-11T17:43:08.768Z,101057.02
2023-03-11T17:45:24.814Z,101059.29
2023-03-11T17:47:38.291Z,101060.08
2023-03-11T17:50:13.748Z,101059.33
2023-03-11T17:52:29.818Z,101057.48
2023-03-11T17:54:54.634Z,101060.17
2023-03-11T17:57:27.349Z,101059.44
2023-03-11T17:59:53.619Z,101060.48
2023-03-11T18:02:06.524Z,101058.52
2023-03-11T18:04:29.819Z,101060.06
2023-03-11T18:06:43.134Z,101061.60
2023-03-11T18:09:06.376Z,101057.45
2023-03-11T18:11:24.858Z,101054.82
2023-03-11T18:13:57.879Z,101066.01
2023-03-11T18:16:23.256Z,101065.23
2023-03-11T18:18:40.636Z,101065.85
2023-03-11T18:21:07.359Z,101062.16
2023-03-11T18:23:40.217Z,101057.92
2023-03-11T18:26:14.228Z,101059.73
2023-03-11T18:28:30.037Z,101058.72
2023-03-11T18:31:07.748Z,101062.64
2023-03-11T18:33:23.520Z,101060.17
2023-03-11T18:35:56.925Z,101057.70
2023-03-11T18:38:19.688Z,101058.38
2023-03-11T18:40:59.033Z,101057.64
2023-03-11T18:43:31.809Z,101059.34
2023-03-11T18:46:05.046Z,101062.23
2023-03-11T18:48:38.085Z,101062.10
2023-03-11T18:51:00.506Z,101059.68
2023-03-11T18:53:26.012Z,101062.02
2023-03-11T18:55:49.698Z,101061.35
2023-03-11T18:58:13.452Z,101060.86
2023-03-11T19:00:39.200Z,101056.80
2023-03-11T19:03:12.889Z,101054.98
2023-03-11T19:05:35.551Z,101050.37
2023-03-11T19:07:51.376Z,101047.61
2023-03-11T19:10:20.999Z,101044.21
2023-03-11T19:12:39.231Z,101040.35
2023-03-11T19:15:13.852Z,101040.23
2023-03-11T19:17:54.505Z,101038.45
2023-03-11T19:20:20.229Z,101038.11
2023-03-11T19:22:32.882Z,101033.33
2023-03-11T19:25:05.900Z,101035.30
2023-03-11T19:27:40.145Z,101036.08
2023-03-11T19:29:55.920Z,101038.11
2023-03-11T19:32:28.594Z,101034.30
2023-03-11T19:34:54.291Z,101041.57
2023-03-11T19:37:07.167Z,101041.94
2023-03-11T19:39:33.524Z,101043.00
2023-03-11T19:42:00.009Z,101037.69
2023-03-11T19:44:16.185Z,101040.27
2023-03-11T19:46:39.984Z,101040.61
2023-03-11T19:49:02.856Z,101040.32
2023-03-11T19:51:49.015Z,101040.71
2023-03-11T19:54:17.943Z,101046.35
2023-03-11T19:56:41.746Z,101042.52
2023-03-11T19:59:04.412Z,101036.42
2023-03-11T20:01:37.345Z,101035.12
2023-03-11T20:04:11.380Z,101025.65
2023-03-11T20:06:44.738Z,101032.09
2023-03-11T20:08:57.871Z,101027.89
2023-03-11T20:11:21.432Z,101032.86
2023-03-11T20:13:52.969Z,101032.25
2023-03-11T20:16:25.809Z,101034.80
2023-03-11T20:18:58.956Z,101028.29
2023-03-11T20:21:31.772Z,101030.70
2023-03-11T20:23:59.516Z,101027.77
2023-03-11T20:26:22.596Z,101025.25
2023-03-11T20:28:35.541Z,101023.97
2023-03-11T20:30:48.665Z,101020.55
2023-03-11T20:33:04.987Z,101017.82
2023-03-11T20:35:28.658Z,101019.65
2023-03-11T20:37:50.835Z,101015.38
2023-03-11T20:40:07.496Z,101016.66
2023-03-11T20:42:36.956Z,101013.56
2023-03-11T20:44:54.058Z,101012.98
2023-03-11T20:47:27.141Z,101008.00
2023-03-11T20:49:51.283Z,101007.00
2023-03-11T20:52:19.134Z,101003.00
2023-03-11T20:54:51.933Z,101000.70
2023-03-11T20:57:24.881Z,101000.28
2023-03-11T20:59:57.707Z,100996.86
2023-03-11T21:02:31.913Z,100992.28
2023-03-11T21:05:04.904Z,100991.35
2023-03-11T21:07:24.439Z,100987.42
2023-03-11T21:09:58.854Z,100984.79
2023-03-11T21:12:21.196Z,100991.19
2023-03-11T21:14:34.356Z,100985.09
2023-03-11T21:16:51.146Z,100984.23
2023-03-11T21:19:14.572Z,100984.85
2023-03-11T21:21:30.208Z,100981.89
2023-03-11T21:24:03.429Z,100976.63
2023-03-11T21:26:20.688Z,100977.14
2023-03-11T21:28:53.340Z,100973.16
2023-03-11T21:31:19.002Z,100972.27
2023-03-11T21:33:42.525Z,100967.86
2023-03-11T21:36:09.049Z,100965.40
2023-03-11T21:38:32.943Z,100964.67
2023-03-11T21:41:07.380Z,100965.63
2023-03-11T21:43:31.653Z,100966.80
2023-03-11T21:46:03.893Z,100959.06
2023-03-11T21:48:37.037Z,100957.50
2023-03-11T21:50:59.856Z,100954.95
2023-03-11T21:53:32.540Z,100957.20
2023-03-11T21:56:05.987Z,100956.39
2023-03-11T21:58:39.177Z,100955.79
2023-03-11T22:01:12.905Z,100960.46
2023-03-11T22:03:36.693Z,100957.97
2023-03-11T22:06:11.926Z,100955.61
2023-03-11T22:08:45.326Z,100955.00
2023-03-11T22:11:10.010Z,100957.02
2023-03-11T22:13:39.310Z,100952.67
2023-03-11T22:16:14.165Z,100949.36
2023-03-11T22:18:47.760Z,100949.45
2023-03-11T22:21:16.363Z,100954.09
2023-03-11T22:23:29.246Z,100951.09
2023-03-11T22:25:48.575Z,100949.90
2023-03-11T22:28:21.396Z,100949.96
2023-03-11T22:30:54.188Z,100949.05
2023-03-11T22:33:26.983Z,100942.84
2023-03-11T22:36:01.241Z,100942.98
2023-03-11T22:38:24.242Z,100943.84
2023-03-11T22:40:40.462Z,100943.70
2023-03-11T22:43:13.218Z,100940.44
2023-03-11T22:45:39.857Z,100940.17
2023-03-11T22:48:14.122Z,100936.64
2023-03-11T22:50:26.968Z,100935.66
2023-03-11T22:52:59.586Z,100933.83
2023-03-11T22:55:17.570Z,100932.80
2023-03-11T22:57:50.828Z,100935.73
2023-03-11T23:00:24.252Z,100937.25
2023-03-11T23:02:47.088Z,100939.02
2023-03-11T23:05:13.406Z,100935.52
2023-03-11T23:07:29.404Z,100933.27
2023-03-11T23:09:52.381Z,100933.46
2023-03-11T23:12:17.485Z,100933.81
2023-03-11T23:14:44.858Z,100934.98
2023-03-11T23:17:18.341Z,100928.09
2023-03-11T23:19:51.704Z,100928.64
2023-03-11T23:22:18.462Z,100924.84
2023-03-11T23:24:51.310Z,100920.86
2023-03-11T23:27:14.251Z,100916.10
2023-03-11T23:29:48.697Z,100917.02
2023-03-11T23:32:01.409Z,100920.10
2023-03-11T23:34:34.198Z,100918.00
2023-03-11T23:37:07.500Z,100914.13
2023-03-11T23:39:40.378Z,100912.62
2023-03-11T23:42:25.060Z,100910.23
2023-03-11T23:44:42.032Z,100908.09
2023-03-11T23:47:04.915Z,100907.32
2023-03-11T23:49:21.074Z,100902.74
2023-03-11T23:51:46.060Z,100903.13
2023-03-11T23:53:58.847Z,100902.47
2023-03-11T23:56:31.631Z,100900.98
2023-03-11T23:58:54.440Z,100896.23
